createdAt,value
2022-09-03T00:04:44.269Z,1.30
2022-09-03T00:10:10.486Z,1.38
2022-09-03T00:15:34.711Z,0.90
2022-09-03T00:20:59.579Z,0.90
2022-09-03T00:26:28.789Z,1.02
2022-09-03T00:31:57.204Z,1.10
2022-09-03T00:37:17.869Z,1.20
2022-09-03T00:43:15.679Z,1.30
2022-09-03T00:48:57.501Z,1.10
2022-09-03T00:54:38.326Z,0.88
2022-09-03T01:00:12.248Z,1.30
2022-09-03T01:05:46.995Z,0.95
2022-09-03T01:11:23.247Z,1.58
2022-09-03T01:17:10.752Z,1.20
2022-09-03T01:22:50.316Z,1.30
2022-09-03T01:28:20.632Z,1.08
2022-09-03T01:39:10.566Z,0.90
2022-09-03T01:44:40.670Z,0.85
2022-09-03T01:50:34.777Z,1.23
2022-09-03T01:56:25.912Z,1.38
2022-09-03T02:01:50.798Z,0.90
2022-09-03T02:07:11.593Z,0.95
2022-09-03T02:12:34.996Z,0.90
2022-09-03T02:18:02.217Z,1.20
2022-09-03T02:23:27.517Z,0.93
2022-09-03T02:28:50.035Z,1.00
2022-09-03T02:34:10.603Z,1.00
2022-09-03T02:39:32.104Z,1.10
2022-09-03T02:45:09.444Z,1.10
2022-09-03T02:50:30.201Z,0.93
2022-09-03T02:55:50.994Z,1.00
2022-09-03T03:01:11.839Z,1.08
2022-09-03T03:06:40.600Z,0.90
2022-09-03T03:12:01.383Z,1.10
2022-09-03T03:17:21.946Z,1.10
2022-09-03T03:22:42.548Z,1.10
2022-09-03T03:28:05.218Z,1.38
2022-09-03T03:33:25.736Z,1.08
2022-09-03T03:38:46.751Z,0.95
2022-09-03T03:44:08.814Z,0.95
2022-09-03T03:49:29.717Z,0.95
2022-09-03T03:54:50.581Z,0.73
2022-09-03T04:00:12.958Z,1.00
2022-09-03T04:05:38.759Z,0.90
2022-09-03T04:11:02.784Z,0.90
2022-09-03T04:16:28.233Z,0.90
2022-09-03T04:21:48.823Z,1.70
2022-09-03T04:27:09.431Z,1.05
2022-09-03T04:32:48.800Z,1.17
2022-09-03T04:38:13.448Z,0.88
2022-09-03T04:43:34.442Z,1.00
2022-09-03T04:48:55.528Z,0.93
2022-09-03T04:54:16.150Z,1.27
2022-09-03T04:59:36.947Z,1.50
2022-09-03T05:04:57.698Z,0.90
2022-09-03T05:10:20.563Z,1.15
2022-09-03T05:15:45.494Z,0.93
2022-09-03T05:21:09.021Z,0.98
2022-09-03T05:26:32.306Z,1.30
2022-09-03T05:31:53.293Z,1.23
2022-09-03T05:37:14.241Z,1.40
2022-09-03T05:42:38.011Z,1.45
2022-09-03T05:48:02.813Z,1.55
2022-09-03T05:53:23.655Z,1.17
2022-09-03T05:58:50.024Z,1.00
2022-09-03T06:04:13.769Z,1.17
2022-09-03T06:09:34.839Z,0.98
2022-09-03T06:14:55.516Z,0.80
2022-09-03T06:20:17.321Z,1.17
2022-09-03T06:25:37.882Z,1.00
2022-09-03T06:30:59.774Z,1.88
2022-09-03T06:36:22.740Z,2.50
2022-09-03T06:41:44.916Z,2.35
2022-09-03T06:47:05.834Z,1.75
2022-09-03T06:52:26.904Z,1.60
2022-09-03T06:57:48.568Z,1.38
2022-09-03T07:03:13.638Z,1.40
2022-09-03T07:08:36.044Z,1.10
2022-09-03T07:13:58.231Z,1.20
2022-09-03T07:19:19.007Z,1.23
2022-09-03T07:24:39.812Z,2.10
2022-09-03T07:30:00.471Z,1.60
2022-09-03T07:35:21.678Z,1.30
2022-09-03T07:40:42.258Z,1.05
2022-09-03T07:46:03.212Z,1.10
2022-09-03T07:51:27.884Z,1.05
2022-09-03T07:56:48.827Z,1.73
2022-09-03T08:02:10.142Z,1.50
2022-09-03T08:07:31.289Z,1.20
2022-09-03T08:12:52.215Z,1.10
2022-09-03T08:18:13.997Z,1.50
2022-09-03T08:23:38.046Z,1.08
2022-09-03T08:28:59.459Z,0.95
2022-09-03T08:34:20.823Z,1.17
2022-09-03T08:39:41.763Z,0.95
2022-09-03T08:45:08.396Z,1.10
2022-09-03T08:50:37.390Z,1.00
2022-09-03T08:56:11.209Z,1.27
2022-09-03T09:01:55.226Z,1.52
2022-09-03T09:07:21.516Z,1.50
2022-09-03T09:12:46.497Z,1.30
2022-09-03T09:18:19.466Z,1.33
2022-09-03T09:23:47.801Z,1.27
2022-09-03T09:29:11.461Z,1.30
2022-09-03T09:34:37.573Z,1.40
2022-09-03T09:40:00.904Z,1.92
2022-09-03T09:45:23.318Z,1.25
2022-09-03T09:50:44.763Z,1.27
2022-09-03T09:56:05.892Z,1.20
2022-09-03T10:01:30.429Z,1.30
2022-09-03T10:07:03.420Z,1.38
2022-09-03T10:12:34.835Z,1.40
2022-09-03T10:18:01.251Z,1.17
2022-09-03T10:23:28.405Z,1.35
2022-09-03T10:28:55.913Z,1.25
2022-09-03T10:34:57.238Z,1.38
2022-09-03T10:40:42.707Z,1.10
2022-09-03T10:46:27.854Z,1.60
2022-09-03T10:51:52.856Z,1.30
2022-09-03T10:57:31.735Z,1.30
2022-09-03T11:03:07.809Z,1.20
2022-09-03T11:09:06.356Z,1.13
2022-09-03T11:14:46.966Z,1.10
2022-09-03T11:20:20.686Z,1.23
2022-09-03T11:25:54.780Z,0.98
2022-09-03T11:31:32.541Z,0.93
2022-09-03T11:37:06.184Z,1.40
2022-09-03T11:42:46.314Z,1.48
2022-09-03T11:48:36.395Z,1.00
2022-09-03T11:54:03.633Z,1.30
2022-09-03T11:59:26.483Z,1.13
2022-09-03T12:05:25.887Z,1.15
2022-09-03T12:11:09.799Z,1.42
2022-09-03T12:16:40.729Z,1.27
2022-09-03T12:22:04.270Z,1.40
2022-09-03T12:27:27.667Z,1.48
2022-09-03T12:32:48.940Z,1.50
2022-09-03T12:38:18.333Z,1.10
2022-09-03T12:43:40.796Z,1.55
2022-09-03T12:55:06.402Z,1.20
2022-09-03T13:00:30.643Z,1.77
2022-09-03T13:05:57.298Z,1.30
2022-09-03T13:11:23.186Z,1.30
2022-09-03T13:16:46.744Z,1.67
2022-09-03T13:22:38.828Z,1.35
2022-09-03T13:28:11.921Z,1.33
2022-09-03T13:33:40.776Z,1.33
2022-09-03T13:39:16.613Z,1.42
2022-09-03T13:44:46.844Z,1.20
2022-09-03T13:50:27.211Z,1.23
2022-09-03T13:55:52.991Z,0.90
2022-09-03T14:01:22.572Z,1.30
2022-09-03T14:12:25.362Z,1.30
2022-09-03T14:18:15.127Z,1.38
2022-09-03T14:24:07.099Z,1.38
2022-09-03T14:29:34.163Z,1.70
2022-09-03T14:35:19.204Z,1.30
2022-09-03T14:40:52.316Z,1.10
2022-09-03T14:46:32.482Z,1.25
2022-09-03T14:52:03.680Z,1.40
2022-09-03T14:57:39.488Z,1.15
2022-09-03T15:03:02.897Z,1.23
2022-09-03T15:08:36.408Z,1.40
2022-09-03T15:14:22.514Z,1.00
2022-09-03T15:20:02.177Z,1.13
2022-09-03T15:25:52.512Z,1.55
2022-09-03T15:31:39.204Z,1.38
2022-09-03T15:37:07.272Z,1.30
2022-09-03T15:42:30.168Z,1.25
2022-09-03T15:47:56.318Z,1.30
2022-09-03T15:53:36.577Z,1.23
2022-09-03T15:59:07.903Z,1.15
2022-09-03T16:05:06.022Z,1.10
2022-09-03T16:10:54.790Z,1.10
2022-09-03T16:16:56.537Z,1.30
2022-09-03T16:22:33.240Z,1.48
2022-09-03T16:28:15.724Z,1.50
2022-09-03T16:34:05.220Z,2.90
2022-09-03T16:39:38.165Z,1.70
2022-09-03T16:45:15.435Z,1.98
2022-09-03T16:51:04.434Z,3.15
2022-09-03T16:56:43.254Z,6.88
2022-09-03T17:02:40.673Z,2.60
2022-09-03T17:08:40.564Z,2.08
2022-09-03T17:14:01.392Z,2.13
2022-09-03T17:19:39.321Z,2.17
2022-09-03T17:25:05.999Z,2.97
2022-09-03T17:30:43.115Z,1.60
2022-09-03T17:36:27.433Z,1.33
2022-09-03T17:41:54.984Z,1.92
2022-09-03T17:47:22.108Z,1.60
2022-09-03T17:52:55.650Z,1.60
2022-09-03T17:58:39.872Z,1.70
2022-09-03T18:04:34.220Z,3.35
2022-09-03T18:10:07.079Z,2.30
2022-09-03T18:15:37.777Z,1.63
2022-09-03T18:21:26.380Z,1.85
2022-09-03T18:27:16.157Z,1.98
2022-09-03T18:32:55.284Z,1.80
2022-09-03T18:38:42.716Z,1.90
2022-09-03T18:44:28.099Z,1.90
2022-09-03T18:50:32.483Z,1.90
2022-09-03T18:56:53.977Z,1.80
2022-09-03T19:02:48.480Z,1.88
2022-09-03T19:08:38.745Z,2.25
2022-09-03T19:14:24.612Z,2.70
2022-09-03T19:20:13.170Z,2.10
2022-09-03T19:25:52.131Z,2.25
2022-09-03T19:31:53.965Z,3.23
2022-09-03T19:37:50.022Z,3.45
2022-09-03T19:43:57.259Z,3.33
2022-09-03T19:49:51.614Z,2.95
2022-09-03T19:55:39.523Z,3.70
2022-09-03T20:01:19.481Z,4.00
2022-09-03T20:06:58.457Z,3.60
2022-09-03T20:12:22.709Z,4.30
2022-09-03T20:18:06.098Z,4.05
2022-09-03T20:23:44.943Z,3.97
2022-09-03T20:29:29.018Z,4.38
2022-09-03T20:35:04.958Z,3.90
2022-09-03T20:41:03.786Z,4.50
2022-09-03T20:46:45.715Z,4.68
2022-09-03T20:52:18.619Z,4.30
2022-09-03T20:57:53.569Z,4.05
2022-09-03T21:03:14.461Z,4.32
2022-09-03T21:08:53.635Z,4.68
2022-09-03T21:14:33.568Z,3.78
2022-09-03T21:20:22.593Z,3.58
2022-09-03T21:25:53.036Z,4.03
2022-09-03T21:31:38.515Z,4.40
2022-09-03T21:37:04.682Z,5.43
2022-09-03T21:42:31.761Z,5.05
2022-09-03T21:47:58.969Z,4.75
2022-09-03T21:53:42.476Z,4.22
2022-09-03T21:59:41.491Z,4.35
2022-09-03T22:05:04.384Z,4.15
2022-09-03T22:10:53.199Z,4.15
2022-09-03T22:16:33.155Z,4.18
2022-09-03T22:22:03.071Z,4.03
2022-09-03T22:27:30.096Z,4.40
2022-09-03T22:33:22.538Z,4.40
2022-09-03T22:38:43.249Z,4.32
2022-09-03T22:44:25.902Z,4.55
2022-09-03T22:50:29.658Z,4.20
2022-09-03T22:56:02.410Z,4.22
2022-09-03T23:01:30.777Z,3.70
2022-09-03T23:07:02.903Z,3.85
2022-09-03T23:12:33.399Z,3.63
2022-09-03T23:18:05.555Z,3.58
2022-09-03T23:23:31.566Z,4.22
2022-09-03T23:29:03.450Z,3.38
2022-09-03T23:34:25.724Z,3.33
2022-09-03T23:40:04.890Z,3.40
2022-09-03T23:45:40.781Z,3.55
2022-09-03T23:51:25.981Z,4.07
2022-09-03T23:57:03.230Z,2.78
